Time;durP1;ratioP1;P1;durP2;ratioP2;P2;SDS_P1;SDS_P2;PMS_P1;PMS_P2;Temp;Humidity;BMP_temperature;BMP_pressure;BME280_temperature;BME280_humidity;BME280_pressure;Samples;Min_cycle;Max_cycle;Signal;HPM_P1;HPM_P2
2023/08/21 00:00:31;;;;;;;9.63;8.57;;;22.40;99.90;;;;;;6299981;28;20120;-81
2023/08/21 00:03:33;;;;;;;10.18;8.77;;;22.40;99.90;;;;;;6300026;28;20049;-82
2023/08/21 00:06:36;;;;;;;11.25;9.35;;;22.30;99.90;;;;;;6299031;28;20063;-81
2023/08/21 00:09:38;;;;;;;15.30;9.27;;;22.30;99.90;;;;;;6298551;28;20422;-80
2023/08/21 00:12:40;;;;;;;10.90;9.70;;;22.30;99.90;;;;;;6299226;28;20459;-82
2023/08/21 00:15:42;;;;;;;11.73;9.10;;;22.30;99.90;;;;;;6299227;28;20057;-81
2023/08/21 00:18:43;;;;;;;8.48;7.53;;;22.20;99.90;;;;;;6298316;28;20036;-80
2023/08/21 00:21:46;;;;;;;13.68;9.02;;;22.20;99.90;;;;;;6298902;28;20049;-82
2023/08/21 00:24:48;;;;;;;13.45;10.68;;;22.20;99.90;;;;;;6298464;28;20055;-81
2023/08/21 00:27:50;;;;;;;10.82;8.60;;;22.10;99.90;;;;;;6297565;28;20052;-81
2023/08/21 00:30:52;;;;;;;10.80;9.75;;;22.00;99.90;;;;;;6298198;28;20044;-81
2023/08/21 00:33:53;;;;;;;12.57;8.27;;;22.00;99.90;;;;;;6292607;28;20049;-82
2023/08/21 00:36:56;;;;;;;10.23;8.80;;;22.00;99.90;;;;;;6302843;28;20415;-81
2023/08/21 00:39:58;;;;;;;16.73;9.50;;;22.00;99.90;;;;;;6300274;28;20069;-81
2023/08/21 00:42:59;;;;;;;14.82;9.90;;;21.90;99.90;;;;;;6301629;28;20052;-81
2023/08/21 00:46:02;;;;;;;11.57;9.60;;;22.00;99.90;;;;;;6301453;28;20049;-82
2023/08/21 00:49:05;;;;;;;12.32;9.20;;;21.90;99.90;;;;;;6302038;28;20119;-81
2023/08/21 00:52:11;;;;;;;12.23;8.13;;;21.90;99.90;;;;;;6303245;28;20045;-81
2023/08/21 00:55:14;;;;;;;11.90;8.90;;;21.90;99.90;;;;;;6302871;28;20067;-80
2023/08/21 00:58:18;;;;;;;9.32;8.52;;;21.80;99.90;;;;;;6302288;28;20083;-82
2023/08/21 01:01:22;;;;;;;9.48;8.68;;;21.80;99.90;;;;;;6303796;28;20075;-82
2023/08/21 01:04:24;;;;;;;10.60;8.98;;;21.70;99.90;;;;;;6318140;28;20044;-82
2023/08/21 01:07:27;;;;;;;10.15;9.18;;;21.80;99.90;;;;;;6330531;28;20044;-81
2023/08/21 01:10:37;;;;;;;11.70;9.52;;;21.70;99.90;;;;;;6329591;28;20070;-82
2023/08/21 01:13:49;;;;;;;12.07;9.00;;;21.70;99.90;;;;;;6328798;28;20068;-81
2023/08/21 01:16:56;;;;;;;12.88;9.82;;;21.70;99.90;;;;;;6328230;28;20387;-82
2023/08/21 01:20:00;;;;;;;9.73;8.73;;;21.70;99.90;;;;;;6302685;28;20044;-81
2023/08/21 01:23:06;;;;;;;9.82;8.40;;;21.70;99.90;;;;;;6302296;28;20048;-82
2023/08/21 01:26:09;;;;;;;9.98;8.95;;;21.70;99.90;;;;;;6302585;28;20053;-81
2023/08/21 01:29:11;;;;;;;9.75;8.80;;;21.70;99.90;;;;;;6302274;28;20591;-82
2023/08/21 01:32:18;;;;;;;9.70;8.75;;;21.70;99.90;;;;;;6302267;28;20416;-82
2023/08/21 01:35:21;;;;;;;16.30;9.73;;;21.70;99.90;;;;;;6302333;28;20051;-81
2023/08/21 01:38:23;;;;;;;12.30;8.57;;;21.60;99.90;;;;;;6301988;28;20045;-82
2023/08/21 01:41:26;;;;;;;12.38;9.30;;;21.60;99.90;;;;;;6302299;28;20048;-82
2023/08/21 01:44:28;;;;;;;10.88;9.68;;;21.60;99.90;;;;;;6303167;28;20059;-81
2023/08/21 01:47:29;;;;;;;14.60;9.57;;;21.50;99.90;;;;;;6302144;28;20056;-80
2023/08/21 01:50:32;;;;;;;10.13;8.65;;;21.50;99.90;;;;;;6302444;28;20040;-81
2023/08/21 01:53:33;;;;;;;10.23;9.20;;;21.50;99.90;;;;;;6301951;28;20057;-82
2023/08/21 01:56:36;;;;;;;13.32;9.25;;;21.40;99.90;;;;;;6301689;28;20052;-81
2023/08/21 01:59:38;;;;;;;9.45;8.57;;;21.40;99.90;;;;;;6302883;28;20045;-82
2023/08/21 02:02:39;;;;;;;11.68;9.23;;;21.30;99.90;;;;;;6301339;28;20523;-81
2023/08/21 02:05:41;;;;;;;12.45;9.15;;;21.20;99.90;;;;;;6302716;28;20044;-81
2023/08/21 02:08:43;;;;;;;13.52;9.07;;;21.30;99.90;;;;;;6302152;28;20051;-82
2023/08/21 02:11:46;;;;;;;11.25;10.15;;;21.30;99.90;;;;;;6302734;28;20049;-81
2023/08/21 02:14:48;;;;;;;9.80;8.82;;;21.20;99.90;;;;;;6302683;28;20100;-81
2023/08/21 02:17:50;;;;;;;8.90;8.05;;;21.20;99.90;;;;;;6301602;28;20053;-81
2023/08/21 02:20:51;;;;;;;9.10;8.30;;;21.20;99.90;;;;;;6300548;28;20127;-81
2023/08/21 02:23:53;;;;;;;14.20;9.43;;;21.20;99.90;;;;;;6300362;28;20059;-81
2023/08/21 02:26:56;;;;;;;11.85;9.63;;;21.20;99.90;;;;;;6301750;28;20049;-80
2023/08/21 02:29:58;;;;;;;11.02;9.77;;;21.10;99.90;;;;;;6302551;28;20044;-81
2023/08/21 02:33:00;;;;;;;10.63;9.02;;;21.10;99.90;;;;;;6302536;28;20052;-81
2023/08/21 02:36:02;;;;;;;12.57;9.85;;;21.10;99.90;;;;;;6303662;28;20048;-82
2023/08/21 02:39:05;;;;;;;8.95;8.15;;;21.10;99.90;;;;;;6303089;28;20102;-81
2023/08/21 02:42:08;;;;;;;11.25;10.10;;;21.20;99.90;;;;;;6301459;28;20052;-81
2023/08/21 02:45:10;;;;;;;9.55;8.50;;;21.20;99.90;;;;;;6301538;28;20055;-81
2023/08/21 02:48:12;;;;;;;11.55;10.25;;;21.10;99.90;;;;;;6300749;28;20040;-81
2023/08/21 02:51:14;;;;;;;11.63;8.40;;;21.20;99.90;;;;;;6301602;28;20048;-80
2023/08/21 02:54:16;;;;;;;12.65;10.40;;;21.10;99.90;;;;;;6300834;28;20055;-81
2023/08/21 02:57:19;;;;;;;12.65;9.27;;;21.10;99.90;;;;;;6300305;28;20055;-80
2023/08/21 03:00:20;;;;;;;9.02;8.13;;;21.10;99.90;;;;;;6301184;28;20047;-82
2023/08/21 03:03:22;;;;;;;9.52;8.57;;;21.10;99.90;;;;;;6302859;28;20055;-81
2023/08/21 03:06:24;;;;;;;10.15;9.23;;;21.10;99.90;;;;;;6305768;28;20053;-82
2023/08/21 03:09:25;;;;;;;10.50;9.13;;;21.00;99.90;;;;;;6300592;28;20044;-81
2023/08/21 03:12:29;;;;;;;13.15;9.27;;;21.00;99.90;;;;;;6299872;28;20052;-81
2023/08/21 03:15:30;;;;;;;11.88;8.98;;;21.00;99.90;;;;;;6300777;28;20132;-81
2023/08/21 03:18:33;;;;;;;10.60;8.68;;;21.00;99.90;;;;;;6299757;28;20044;-82
2023/08/21 03:21:34;;;;;;;9.20;8.38;;;20.90;99.90;;;;;;6299812;28;20048;-81
2023/08/21 03:24:36;;;;;;;10.80;9.70;;;20.90;99.90;;;;;;6300683;28;20037;-81
2023/08/21 03:27:40;;;;;;;11.82;8.15;;;20.90;99.90;;;;;;6300324;28;20068;-81
2023/08/21 03:30:41;;;;;;;11.63;8.52;;;20.80;99.90;;;;;;6299522;28;20037;-80
2023/08/21 03:33:43;;;;;;;9.90;8.73;;;20.80;99.90;;;;;;6299795;28;20142;-81
2023/08/21 03:36:45;;;;;;;9.63;8.68;;;20.70;99.90;;;;;;6300450;28;20044;-81
2023/08/21 03:39:47;;;;;;;9.55;8.73;;;20.60;99.90;;;;;;6300708;28;20045;-81
2023/08/21 03:42:50;;;;;;;12.02;9.13;;;20.70;99.90;;;;;;6300458;28;20060;-81
2023/08/21 03:45:51;;;;;;;8.82;7.93;;;20.70;99.90;;;;;;6300535;28;20048;-81
2023/08/21 03:48:53;;;;;;;9.93;9.00;;;20.70;99.90;;;;;;6300044;28;20036;-81
2023/08/21 03:51:55;;;;;;;9.77;8.27;;;20.60;99.90;;;;;;6300780;28;20044;-81
2023/08/21 03:54:56;;;;;;;9.88;8.30;;;20.50;99.90;;;;;;6301851;28;20067;-81
2023/08/21 03:57:59;;;;;;;12.20;9.73;;;20.50;99.90;;;;;;6301452;28;20056;-82
2023/08/21 04:01:01;;;;;;;10.02;9.13;;;20.50;99.90;;;;;;6301331;28;20048;-81
2023/08/21 04:04:03;;;;;;;10.93;9.82;;;20.50;99.90;;;;;;6302099;28;20049;-81
2023/08/21 04:07:05;;;;;;;11.30;9.02;;;20.50;99.90;;;;;;6302750;28;20127;-81
2023/08/21 04:10:08;;;;;;;11.50;8.77;;;20.50;99.90;;;;;;6306223;28;20043;-82
2023/08/21 04:13:11;;;;;;;9.38;8.48;;;20.50;99.90;;;;;;6306421;28;20419;-81
2023/08/21 04:16:13;;;;;;;15.15;8.80;;;20.50;99.90;;;;;;6304955;28;20044;-82
2023/08/21 04:19:15;;;;;;;9.75;8.75;;;20.50;99.90;;;;;;6318158;28;20040;-80
2023/08/21 04:22:17;;;;;;;12.18;8.55;;;20.50;99.90;;;;;;6303325;28;20051;-80
2023/08/21 04:25:19;;;;;;;11.65;9.98;;;20.40;99.90;;;;;;6304686;28;20052;-81
2023/08/21 04:28:22;;;;;;;9.95;8.93;;;20.40;99.90;;;;;;6304282;28;20052;-81
2023/08/21 04:31:23;;;;;;;10.50;9.45;;;20.40;99.90;;;;;;6304636;28;20049;-81
2023/08/21 04:34:25;;;;;;;12.93;10.02;;;20.50;99.90;;;;;;6303923;28;20045;-81
2023/08/21 04:37:27;;;;;;;9.98;9.02;;;20.40;99.90;;;;;;6303304;28;20044;-81
2023/08/21 04:40:28;;;;;;;12.02;8.02;;;20.50;99.90;;;;;;6303337;28;20052;-81
2023/08/21 04:43:31;;;;;;;11.50;9.15;;;20.50;99.90;;;;;;6303450;28;20060;-81
2023/08/21 04:46:33;;;;;;;9.52;8.63;;;20.50;99.90;;;;;;6304023;28;20559;-81
2023/08/21 04:49:35;;;;;;;11.55;9.35;;;20.50;99.90;;;;;;6303975;28;20448;-80
2023/08/21 04:52:36;;;;;;;18.23;11.40;;;20.50;99.90;;;;;;6303861;28;20041;-80
2023/08/21 04:55:40;;;;;;;10.32;9.30;;;20.60;99.90;;;;;;6303696;28;20057;-81
2023/08/21 04:58:43;;;;;;;10.77;8.48;;;20.60;99.90;;;;;;6301664;28;20479;-81
2023/08/21 05:01:44;;;;;;;16.55;9.90;;;20.70;99.90;;;;;;6303678;28;20048;-80
2023/08/21 05:04:46;;;;;;;13.27;9.48;;;20.80;99.90;;;;;;6302171;28;20043;-81
2023/08/21 05:07:48;;;;;;;12.63;8.38;;;20.90;99.90;;;;;;6301506;28;20163;-80
2023/08/21 05:10:54;;;;;;;9.25;8.35;;;21.00;99.90;;;;;;6302685;28;20131;-81
2023/08/21 05:13:57;;;;;;;13.18;7.97;;;21.20;99.90;;;;;;6301525;28;20504;-79
2023/08/21 05:16:59;;;;;;;8.88;8.00;;;21.40;99.90;;;;;;6300932;28;20055;-81
2023/08/21 05:20:00;;;;;;;10.25;7.15;;;21.60;99.90;;;;;;6302313;28;20059;-81
2023/08/21 05:23:04;;;;;;;10.73;7.65;;;21.70;99.90;;;;;;6301598;28;20048;-80
2023/08/21 05:26:05;;;;;;;8.80;7.53;;;21.90;99.90;;;;;;6301414;28;20045;-81
2023/08/21 05:29:08;;;;;;;10.25;8.25;;;22.10;99.90;;;;;;6300995;28;20051;-81
2023/08/21 05:32:10;;;;;;;10.82;7.60;;;22.40;99.90;;;;;;6301199;28;20051;-80
2023/08/21 05:35:12;;;;;;;14.98;8.25;;;22.60;99.90;;;;;;6301440;28;20048;-81
2023/08/21 05:38:13;;;;;;;7.97;6.15;;;22.80;99.90;;;;;;6301413;28;20048;-81
2023/08/21 05:41:15;;;;;;;9.18;6.90;;;23.00;99.90;;;;;;6301548;28;20419;-80
2023/08/21 05:44:18;;;;;;;7.20;5.95;;;23.30;99.90;;;;;;6301622;28;20044;-81
2023/08/21 05:47:20;;;;;;;9.40;7.55;;;23.50;99.90;;;;;;6302656;28;20415;-80
2023/08/21 05:50:22;;;;;;;10.32;6.85;;;23.70;99.90;;;;;;6301358;28;20041;-81
2023/08/21 05:53:23;;;;;;;8.60;6.82;;;24.00;99.90;;;;;;6301271;28;20580;-81
2023/08/21 05:56:25;;;;;;;11.07;7.03;;;24.20;99.90;;;;;;6301983;28;20047;-81
2023/08/21 05:59:33;;;;;;;11.35;6.05;;;24.40;99.90;;;;;;6301237;28;20048;-81
2023/08/21 06:02:35;;;;;;;9.35;7.03;;;24.70;99.90;;;;;;6301205;28;20633;-80
2023/08/21 06:05:36;;;;;;;11.88;6.50;;;25.00;99.90;;;;;;6301200;28;20400;-81
2023/08/21 06:08:38;;;;;;;6.90;6.22;;;25.30;99.90;;;;;;6300385;28;20044;-81
2023/08/21 06:11:40;;;;;;;7.75;6.90;;;25.70;99.90;;;;;;6300873;28;20067;-82
2023/08/21 06:14:43;;;;;;;12.55;7.68;;;26.00;99.90;;;;;;6289043;28;20052;-81
2023/08/21 06:17:44;;;;;;;9.98;7.25;;;26.50;99.90;;;;;;6299157;28;20131;-82
2023/08/21 06:20:46;;;;;;;10.95;7.25;;;27.00;99.90;;;;;;6299042;28;20040;-79
2023/08/21 06:23:48;;;;;;;9.73;7.40;;;27.60;99.90;;;;;;6299841;28;20040;-80
2023/08/21 06:26:49;;;;;;;7.15;6.45;;;28.40;99.90;;;;;;6301841;28;20139;-81
2023/08/21 06:29:53;;;;;;;10.65;6.18;;;29.20;99.90;;;;;;6301294;28;20062;-82
2023/08/21 06:32:54;;;;;;;8.43;7.22;;;29.70;99.90;;;;;;6301611;28;20047;-82
2023/08/21 06:35:56;;;;;;;9.00;7.32;;;30.20;99.40;;;;;;6302079;28;20052;-82
2023/08/21 06:38:58;;;;;;;7.15;6.53;;;30.50;98.50;;;;;;6301819;28;20386;-82
2023/08/21 06:42:00;;;;;;;7.57;6.78;;;30.50;97.80;;;;;;6301601;28;20419;-82
2023/08/21 06:45:04;;;;;;;7.60;6.90;;;30.50;97.60;;;;;;6301514;28;20052;-81
2023/08/21 06:48:06;;;;;;;7.35;6.65;;;30.50;97.30;;;;;;6300993;28;20048;-82
2023/08/21 06:51:08;;;;;;;9.00;7.65;;;30.70;96.70;;;;;;6299152;28;20048;-82
2023/08/21 06:54:10;;;;;;;9.68;7.57;;;30.80;96.30;;;;;;6301667;28;20048;-83
2023/08/21 06:57:11;;;;;;;7.28;6.55;;;30.90;95.60;;;;;;6303408;28;20052;-82
2023/08/21 07:00:15;;;;;;;8.88;7.03;;;31.10;95.00;;;;;;6303502;28;20044;-81
2023/08/21 07:03:17;;;;;;;8.10;7.15;;;31.20;94.00;;;;;;6301674;28;20513;-82
2023/08/21 07:06:18;;;;;;;8.55;7.57;;;31.30;93.10;;;;;;6301469;28;20044;-82
2023/08/21 07:09:20;;;;;;;9.15;6.50;;;31.20;92.70;;;;;;6283671;28;20045;-83
2023/08/21 07:12:23;;;;;;;7.40;6.70;;;31.50;92.00;;;;;;6277918;28;20045;-82
2023/08/21 07:15:26;;;;;;;9.43;7.30;;;32.00;90.90;;;;;;6277485;28;20048;-82
2023/08/21 07:18:28;;;;;;;15.52;9.63;;;32.20;89.00;;;;;;6277457;28;20049;-83
2023/08/21 07:21:29;;;;;;;8.90;6.53;;;32.30;87.80;;;;;;6298755;28;20163;-82
2023/08/21 07:24:31;;;;;;;8.02;7.22;;;32.30;86.70;;;;;;6302034;28;20047;-83
2023/08/21 07:27:33;;;;;;;9.95;7.30;;;32.30;85.60;;;;;;6301715;28;20088;-81
2023/08/21 07:30:38;;;;;;;8.70;7.80;;;32.30;85.20;;;;;;6301753;28;20048;-83
2023/08/21 07:33:39;;;;;;;10.32;7.85;;;32.10;85.60;;;;;;6301965;28;20125;-82
2023/08/21 07:36:41;;;;;;;11.90;8.50;;;31.90;85.20;;;;;;6302820;28;20044;-82
2023/08/21 07:39:43;;;;;;;9.88;7.63;;;31.60;85.70;;;;;;6302583;28;20118;-82
2023/08/21 07:42:44;;;;;;;11.90;8.63;;;31.40;86.70;;;;;;6304292;28;20055;-82
2023/08/21 07:45:47;;;;;;;13.23;8.35;;;31.30;87.30;;;;;;6306005;28;20051;-82
2023/08/21 07:48:51;;;;;;;9.75;7.85;;;31.30;87.40;;;;;;6305420;28;20052;-83
2023/08/21 07:51:52;;;;;;;8.15;7.32;;;31.20;87.90;;;;;;6305192;28;20044;-83
2023/08/21 07:54:54;;;;;;;8.10;7.32;;;31.30;88.00;;;;;;6306970;28;20052;-82
2023/08/21 07:57:56;;;;;;;8.55;7.85;;;31.40;87.60;;;;;;6306695;28;20048;-82
2023/08/21 08:01:00;;;;;;;9.98;7.57;;;31.20;87.00;;;;;;6306670;28;20045;-81
2023/08/21 08:04:01;;;;;;;6.82;6.13;;;31.10;87.10;;;;;;6304060;28;20600;-81
2023/08/21 08:07:03;;;;;;;14.80;8.43;;;31.10;87.50;;;;;;6305216;28;20106;-80
2023/08/21 08:10:05;;;;;;;8.88;7.70;;;31.20;87.50;;;;;;6304467;28;20044;-81
2023/08/21 08:13:08;;;;;;;15.27;7.15;;;31.20;87.00;;;;;;6303508;28;20040;-80
2023/08/21 08:16:11;;;;;;;8.38;7.55;;;31.00;87.10;;;;;;6303865;28;20520;-80
2023/08/21 08:19:12;;;;;;;12.63;8.65;;;31.10;87.10;;;;;;6303186;28;20118;-79
2023/08/21 08:22:14;;;;;;;8.50;7.40;;;31.20;86.90;;;;;;6302625;28;20044;-80
2023/08/21 08:25:16;;;;;;;11.55;8.55;;;31.30;86.40;;;;;;6302730;28;20044;-80
2023/08/21 08:28:18;;;;;;;8.48;7.70;;;31.40;86.70;;;;;;6302033;28;20040;-80
2023/08/21 08:31:23;;;;;;;7.85;7.10;;;31.60;86.40;;;;;;6303367;28;20467;-80
2023/08/21 08:34:25;;;;;;;10.15;7.57;;;31.60;85.80;;;;;;6301957;28;20072;-80
2023/08/21 08:37:27;;;;;;;11.27;8.38;;;31.70;85.70;;;;;;6298903;28;20056;-80
2023/08/21 08:40:28;;;;;;;9.65;7.20;;;31.90;85.40;;;;;;6301725;28;20459;-80
2023/08/21 08:43:32;;;;;;;8.18;7.38;;;32.00;84.30;;;;;;6301803;28;20415;-80
2023/08/21 08:46:37;;;;;;;10.30;6.65;;;32.20;83.00;;;;;;6302673;28;20049;-79
2023/08/21 08:49:39;;;;;;;7.78;6.90;;;32.30;82.70;;;;;;6300869;28;20048;-80
2023/08/21 08:52:41;;;;;;;11.18;7.10;;;32.60;82.30;;;;;;6292548;28;20055;-79
2023/08/21 08:55:43;;;;;;;9.48;7.32;;;32.80;81.60;;;;;;6301887;28;20048;-80
2023/08/21 08:58:45;;;;;;;11.88;7.22;;;32.80;80.20;;;;;;6302236;28;20045;-81
2023/08/21 09:01:48;;;;;;;7.53;6.82;;;32.80;80.20;;;;;;6308008;28;20808;-80
2023/08/21 09:04:50;;;;;;;8.90;8.13;;;33.00;79.70;;;;;;6309992;28;20044;-80
2023/08/21 09:08:04;;;;;;;11.80;6.88;;;33.10;79.10;;;;;;6310209;28;20371;-79
2023/08/21 09:11:06;;;;;;;9.38;7.60;;;33.20;78.60;;;;;;6311343;28;20048;-80
2023/08/21 09:14:07;;;;;;;10.48;8.57;;;33.40;78.10;;;;;;6309902;28;20054;-81
2023/08/21 09:17:11;;;;;;;7.85;6.35;;;33.60;77.20;;;;;;6310391;28;20049;-81
2023/08/21 09:20:13;;;;;;;11.23;7.45;;;33.80;76.50;;;;;;6310345;28;20045;-80
2023/08/21 09:23:17;;;;;;;7.35;6.63;;;34.00;76.10;;;;;;6310236;28;20048;-81
2023/08/21 09:26:22;;;;;;;10.32;8.35;;;34.10;75.60;;;;;;6309450;28;20094;-80
2023/08/21 09:29:23;;;;;;;9.23;7.07;;;34.30;75.20;;;;;;6309539;28;20059;-79
2023/08/21 09:32:26;;;;;;;8.45;7.65;;;34.40;74.50;;;;;;6310734;28;20496;-80
2023/08/21 09:35:28;;;;;;;9.15;7.22;;;34.50;74.00;;;;;;6310429;28;20062;-81
2023/08/21 09:38:30;;;;;;;8.80;6.63;;;34.60;73.10;;;;;;6309812;28;20045;-79
2023/08/21 09:41:31;;;;;;;11.00;6.57;;;34.70;72.80;;;;;;6308553;28;20063;-80
2023/08/21 09:44:38;;;;;;;8.63;6.80;;;35.00;72.10;;;;;;6303564;28;20052;-79
2023/08/21 09:47:41;;;;;;;8.18;6.68;;;35.10;71.30;;;;;;6301302;28;20580;-80
2023/08/21 09:50:44;;;;;;;10.32;6.75;;;35.10;71.30;;;;;;6297911;28;20041;-79
2023/08/21 09:53:46;;;;;;;7.13;6.32;;;35.30;70.60;;;;;;6297822;28;20053;-79
2023/08/21 09:56:49;;;;;;;10.35;7.78;;;35.40;70.20;;;;;;6298126;28;20041;-79
2023/08/21 09:59:53;;;;;;;9.63;6.78;;;35.40;69.30;;;;;;6298044;28;20055;-79
2023/08/21 10:03:02;;;;;;;8.93;6.25;;;35.40;68.70;;;;;;6298130;28;20415;-79
2023/08/21 10:06:06;;;;;;;7.07;6.45;;;35.40;68.10;;;;;;6297712;28;20365;-79
2023/08/21 10:09:09;;;;;;;7.25;5.80;;;35.60;67.80;;;;;;6298624;28;20522;-79
2023/08/21 10:12:11;;;;;;;6.40;5.82;;;35.80;67.20;;;;;;6299165;28;20040;-80
2023/08/21 10:15:13;;;;;;;7.05;6.03;;;35.80;67.00;;;;;;6298947;28;20052;-80
2023/08/21 10:18:25;;;;;;;6.18;5.43;;;36.00;66.80;;;;;;6298347;28;20051;-80
2023/08/21 10:21:26;;;;;;;7.95;6.53;;;36.30;65.50;;;;;;6297737;28;20415;-80
2023/08/21 10:24:29;;;;;;;5.93;5.38;;;36.60;64.30;;;;;;6298353;28;21088;-79
2023/08/21 10:27:31;;;;;;;6.55;5.97;;;37.00;63.50;;;;;;6300615;28;20059;-79
2023/08/21 10:30:33;;;;;;;5.70;5.07;;;37.20;62.60;;;;;;6298399;28;20041;-79
2023/08/21 10:33:48;;;;;;;8.48;6.53;;;37.40;61.40;;;;;;6300184;28;20045;-79
2023/08/21 10:37:09;;;;;;;7.75;5.65;;;37.50;60.80;;;;;;6299583;28;20047;-79
2023/08/21 10:40:23;;;;;;;9.45;6.25;;;37.10;61.20;;;;;;6301680;28;20047;-80
2023/08/21 10:43:43;;;;;;;7.55;6.30;;;37.00;61.20;;;;;;6298070;28;20052;-80
2023/08/21 10:47:17;;;;;;;11.75;5.93;;;36.90;61.30;;;;;;6298900;28;20102;-80
2023/08/21 10:50:21;;;;;;;6.22;5.22;;;36.70;60.30;;;;;;6295853;28;20041;-80
2023/08/21 10:53:25;;;;;;;6.90;6.30;;;36.60;60.80;;;;;;6301065;28;20131;-79
2023/08/21 10:56:27;;;;;;;6.38;5.75;;;36.70;60.40;;;;;;6300038;28;20407;-80
2023/08/21 10:59:28;;;;;;;10.10;5.85;;;37.30;60.10;;;;;;6300668;28;20055;-80
2023/08/21 11:02:31;;;;;;;5.60;5.10;;;37.50;59.90;;;;;;6301114;28;20048;-80
2023/08/21 11:05:34;;;;;;;5.78;4.07;;;37.80;58.70;;;;;;6301376;28;20129;-80
2023/08/21 11:08:37;;;;;;;9.68;4.50;;;38.10;58.20;;;;;;6302170;28;20044;-80
2023/08/21 11:11:39;;;;;;;5.72;5.13;;;38.20;57.70;;;;;;6302095;28;20048;-80
2023/08/21 11:14:41;;;;;;;5.72;4.57;;;38.30;57.50;;;;;;6294276;28;20060;-81
2023/08/21 11:17:43;;;;;;;4.35;3.85;;;38.70;56.90;;;;;;6300704;28;20044;-80
2023/08/21 11:20:46;;;;;;;8.77;5.00;;;38.80;55.90;;;;;;6301340;28;20589;-80
2023/08/21 11:23:47;;;;;;;5.18;4.32;;;38.70;55.50;;;;;;6299771;28;20049;-81
2023/08/21 11:26:50;;;;;;;8.27;3.72;;;38.80;54.90;;;;;;6302196;28;20433;-81
2023/08/21 11:29:53;;;;;;;5.05;4.30;;;39.10;54.40;;;;;;6300534;28;20048;-80
2023/08/21 11:33:10;;;;;;;5.65;4.22;;;39.30;54.10;;;;;;6301450;28;20067;-81
2023/08/21 11:36:13;;;;;;;6.93;4.47;;;39.30;53.30;;;;;;6299104;28;20048;-80
2023/08/21 11:39:15;;;;;;;5.38;4.57;;;39.50;53.10;;;;;;6303287;28;20056;-79
2023/08/21 11:42:17;;;;;;;10.35;5.65;;;39.70;53.30;;;;;;6300183;28;20044;-79
2023/08/21 11:45:21;;;;;;;6.28;4.25;;;40.00;53.00;;;;;;6299510;28;20562;-79
2023/08/21 11:48:23;;;;;;;6.30;4.57;;;40.40;52.10;;;;;;6302158;28;20051;-81
2023/08/21 11:51:27;;;;;;;5.00;4.38;;;40.60;51.80;;;;;;6302032;28;20068;-81
2023/08/21 11:54:35;;;;;;;4.85;4.40;;;40.80;51.10;;;;;;6301484;28;20111;-81
2023/08/21 11:57:46;;;;;;;8.77;3.95;;;41.00;50.50;;;;;;6301485;28;20484;-83
2023/08/21 12:00:47;;;;;;;6.00;4.80;;;41.20;50.40;;;;;;6303610;28;20036;-82
2023/08/21 12:03:54;;;;;;;12.55;4.97;;;41.30;50.30;;;;;;6303464;28;20052;-80
2023/08/21 12:06:57;;;;;;;5.63;4.93;;;41.40;49.80;;;;;;6304446;28;20056;-82
2023/08/21 12:09:59;;;;;;;6.85;4.88;;;41.80;49.40;;;;;;6304374;28;20047;-82
2023/08/21 12:13:00;;;;;;;7.53;4.72;;;42.00;49.00;;;;;;6306428;28;20052;-82
2023/08/21 12:16:02;;;;;;;8.18;6.25;;;42.00;48.70;;;;;;6299221;28;20052;-81
2023/08/21 12:19:04;;;;;;;8.05;5.20;;;42.10;48.40;;;;;;6299949;28;20053;-82
2023/08/21 12:22:07;;;;;;;8.63;6.13;;;42.30;48.20;;;;;;6298501;28;20045;-83
2023/08/21 12:25:09;;;;;;;7.45;5.40;;;42.20;48.40;;;;;;6298775;28;20044;-80
2023/08/21 12:28:12;;;;;;;8.02;5.15;;;42.20;48.20;;;;;;6302171;28;20064;-82
2023/08/21 12:31:14;;;;;;;6.85;5.03;;;42.20;48.00;;;;;;6307003;28;20041;-81
2023/08/21 12:34:16;;;;;;;6.68;4.43;;;42.20;48.10;;;;;;6302909;28;20093;-81
2023/08/21 12:37:19;;;;;;;9.93;5.45;;;42.30;48.10;;;;;;6278790;28;20522;-83
2023/08/21 12:40:21;;;;;;;8.38;5.90;;;42.70;47.40;;;;;;6283655;28;20094;-82
2023/08/21 12:43:22;;;;;;;11.25;5.10;;;42.60;47.30;;;;;;6303222;28;20127;-83
2023/08/21 12:46:26;;;;;;;7.53;6.10;;;42.70;47.20;;;;;;6302788;28;20052;-83
2023/08/21 12:49:27;;;;;;;5.93;5.32;;;42.70;47.10;;;;;;6301002;28;20087;-81
2023/08/21 12:52:30;;;;;;;6.22;5.15;;;42.70;46.80;;;;;;6302428;28;20040;-82
2023/08/21 12:55:32;;;;;;;9.88;4.28;;;43.00;46.20;;;;;;6303280;28;20049;-83
2023/08/21 12:58:34;;;;;;;5.78;4.35;;;43.30;45.70;;;;;;6303429;28;20047;-84
2023/08/21 13:01:37;;;;;;;5.97;4.30;;;43.50;45.20;;;;;;6303533;28;20040;-84
2023/08/21 13:04:39;;;;;;;8.65;4.05;;;43.50;44.80;;;;;;6303136;28;20445;-83
2023/08/21 13:07:42;;;;;;;7.75;4.72;;;43.20;44.90;;;;;;6303670;28;20048;-83
2023/08/21 13:10:44;;;;;;;6.22;5.03;;;43.10;44.90;;;;;;6303300;28;20056;-84
2023/08/21 13:13:46;;;;;;;8.18;4.45;;;43.00;44.70;;;;;;6304981;28;20044;-82
2023/08/21 13:16:47;;;;;;;12.18;4.57;;;42.60;44.80;;;;;;6304329;28;20040;-83
2023/08/21 13:19:49;;;;;;;4.85;4.38;;;42.10;45.50;;;;;;6302397;28;20048;-83
2023/08/21 13:22:53;;;;;;;5.13;4.07;;;42.10;45.60;;;;;;6303505;28;20048;-83
2023/08/21 13:25:55;;;;;;;11.23;4.10;;;42.40;45.20;;;;;;6302451;28;20067;-83
2023/08/21 13:28:56;;;;;;;5.32;4.43;;;42.50;44.70;;;;;;6302761;28;20040;-83
2023/08/21 13:31:58;;;;;;;9.77;4.35;;;42.60;44.20;;;;;;6302570;28;20415;-83
2023/08/21 13:35:00;;;;;;;9.93;4.30;;;42.50;44.10;;;;;;6302526;28;20415;-82
2023/08/21 13:38:03;;;;;;;4.57;3.85;;;42.20;44.10;;;;;;6302175;28;20515;-83
2023/08/21 13:41:05;;;;;;;6.72;3.90;;;42.00;44.30;;;;;;6302348;28;20052;-83
2023/08/21 13:44:07;;;;;;;8.05;4.18;;;42.10;44.50;;;;;;6302294;28;20510;-83
2023/08/21 13:47:09;;;;;;;5.68;4.47;;;42.40;44.00;;;;;;6302521;28;20098;-83
2023/08/21 13:50:11;;;;;;;10.10;4.45;;;42.80;43.70;;;;;;6302309;28;20068;-83
2023/08/21 13:53:14;;;;;;;4.90;3.53;;;42.90;43.40;;;;;;6302485;28;20056;-83
2023/08/21 13:56:16;;;;;;;5.05;4.30;;;42.80;43.00;;;;;;6303143;28;20044;-82
2023/08/21 13:59:18;;;;;;;9.68;3.85;;;42.80;42.80;;;;;;6307937;28;20059;-82
2023/08/21 14:02:19;;;;;;;4.63;3.50;;;42.70;42.50;;;;;;6302219;28;20041;-83
2023/08/21 14:05:21;;;;;;;4.32;3.28;;;42.90;42.30;;;;;;6302643;28;20055;-84
2023/08/21 14:08:24;;;;;;;4.43;3.92;;;43.10;42.40;;;;;;6302285;28;20045;-84
2023/08/21 14:11:26;;;;;;;3.63;3.33;;;43.30;41.80;;;;;;6302467;28;20128;-84
2023/08/21 14:14:28;;;;;;;6.65;4.60;;;42.70;41.80;;;;;;6301473;28;20041;-83
2023/08/21 14:17:29;;;;;;;3.58;3.28;;;42.20;42.20;;;;;;6304770;28;20397;-82
2023/08/21 14:20:31;;;;;;;7.32;3.92;;;41.90;42.80;;;;;;6302772;28;20044;-81
2023/08/21 14:23:34;;;;;;;4.75;3.60;;;42.20;42.40;;;;;;6304255;28;20048;-83
2023/08/21 14:26:36;;;;;;;4.95;3.35;;;42.40;41.60;;;;;;6301545;28;20051;-81
2023/08/21 14:29:40;;;;;;;3.95;3.42;;;42.20;42.30;;;;;;6302480;28;20049;-81
2023/08/21 14:32:42;;;;;;;4.85;3.80;;;42.20;42.50;;;;;;6305210;28;20500;-82
2023/08/21 14:35:43;;;;;;;5.57;3.67;;;42.30;42.50;;;;;;6303584;28;20060;-84
2023/08/21 14:38:46;;;;;;;3.97;3.38;;;42.70;41.60;;;;;;6302894;28;20054;-84
2023/08/21 14:41:53;;;;;;;4.07;3.38;;;43.00;41.50;;;;;;6305647;28;20049;-82
2023/08/21 14:44:55;;;;;;;6.65;3.75;;;43.10;41.10;;;;;;6301260;28;20067;-84
2023/08/21 14:47:57;;;;;;;4.35;3.20;;;43.20;41.60;;;;;;6303448;28;20062;-82
2023/08/21 14:50:58;;;;;;;3.95;2.92;;;43.50;41.00;;;;;;6307005;28;20056;-83
2023/08/21 14:54:01;;;;;;;4.15;3.10;;;43.70;40.90;;;;;;6308867;28;20044;-82
2023/08/21 14:57:04;;;;;;;4.13;2.80;;;43.80;40.60;;;;;;6297529;28;20052;-82
2023/08/21 15:00:07;;;;;;;2.95;2.75;;;43.80;40.50;;;;;;6306769;28;20072;-81
2023/08/21 15:03:09;;;;;;;8.35;3.60;;;43.70;40.00;;;;;;6304933;28;20128;-82
2023/08/21 15:06:11;;;;;;;10.25;3.35;;;43.70;40.20;;;;;;6299584;28;20053;-83
2023/08/21 15:09:14;;;;;;;6.18;3.45;;;43.60;40.60;;;;;;6304722;28;20104;-83
2023/08/21 15:12:16;;;;;;;6.38;3.28;;;43.50;40.90;;;;;;6304746;28;20055;-83
2023/08/21 15:15:20;;;;;;;8.43;3.85;;;43.30;41.00;;;;;;6306717;28;20029;-82
2023/08/21 15:18:22;;;;;;;5.10;3.35;;;43.40;41.00;;;;;;6303022;28;20060;-83
2023/08/21 15:21:23;;;;;;;4.53;2.97;;;43.50;41.10;;;;;;6303416;28;20070;-82
2023/08/21 15:24:26;;;;;;;4.80;3.83;;;43.50;41.10;;;;;;6300300;28;20427;-82
2023/08/21 15:27:28;;;;;;;3.72;3.20;;;43.50;41.50;;;;;;6304864;28;20055;-82
2023/08/21 15:30:30;;;;;;;5.75;4.13;;;43.20;41.50;;;;;;6305889;28;20123;-83
2023/08/21 15:33:31;;;;;;;7.55;4.20;;;43.10;42.00;;;;;;6306071;28;20045;-84
2023/08/21 15:36:33;;;;;;;8.00;4.13;;;43.20;42.20;;;;;;6307137;28;20059;-83
2023/08/21 15:39:36;;;;;;;8.40;3.75;;;43.10;42.50;;;;;;6306527;28;20415;-84
2023/08/21 15:42:38;;;;;;;4.72;3.95;;;42.90;42.70;;;;;;6307231;28;20056;-83
2023/08/21 15:45:39;;;;;;;6.70;3.70;;;42.60;42.90;;;;;;6305496;28;20044;-83